<?xml version='1.0' encoding='UTF-8'?><gpx version="1.1" creator="JPX - https://github.com/jenetics/jpx" xmlns="http://www.topografix.com/GPX/1/1"><trk><trkseg><trkpt lat="43.4633469" lon="11.4308756"><ele>347.0</ele><time>2026-04-26T09:45:37.93Z</time></trkpt><trkpt lat="43.4633572" lon="11.4307466"><ele>347.0</ele><time>2026-04-26T09:45:39.932Z</time></trkpt><trkpt lat="43.463419" lon="11.4307274"><ele>347.0</ele><time>2026-04-26T09:45:41.918Z</time></trkpt><trkpt lat="43.4635183" lon="11.4308563"><ele>347.0</ele><time>2026-04-26T09:45:43.927Z</time></trkpt><trkpt lat="43.4635718" lon="11.4309688"><ele>347.0</ele><time>2026-04-26T09:45:44.929Z</time></trkpt><trkpt lat="43.4636316" lon="11.4310971"><ele>347.0</ele><time>2026-04-26T09:45:45.915Z</time></trkpt><trkpt lat="43.4636966" lon="11.4312462"><ele>347.0</ele><time>2026-04-26T09:45:46.924Z</time></trkpt><trkpt lat="43.4637627" lon="11.4314141"><ele>347.0</ele><time>2026-04-26T09:45:47.921Z</time></trkpt><trkpt lat="43.4638284" lon="11.4315883"><ele>347.0</ele><time>2026-04-26T09:45:48.915Z</time></trkpt><trkpt lat="43.463896" lon="11.4317666"><ele>347.5</ele><time>2026-04-26T09:45:49.916Z</time></trkpt><trkpt lat="43.4639658" lon="11.4319451"><ele>348.0</ele><time>2026-04-26T09:45:50.91Z</time></trkpt><trkpt lat="43.4640328" lon="11.4321252"><ele>348.5</ele><time>2026-04-26T09:45:51.92Z</time></trkpt><trkpt lat="43.464094" lon="11.432295"><ele>349.0</ele><time>2026-04-26T09:45:52.906Z</time></trkpt><trkpt lat="43.4641527" lon="11.4324487"><ele>349.0</ele><time>2026-04-26T09:45:53.918Z</time></trkpt><trkpt lat="43.4642128" lon="11.4325791"><ele>349.0</ele><time>2026-04-26T09:45:54.922Z</time></trkpt><trkpt lat="43.4642753" lon="11.4326866"><ele>349.0</ele><time>2026-04-26T09:45:55.929Z</time></trkpt><trkpt lat="43.4643421" lon="11.4327779"><ele>349.0</ele><time>2026-04-26T09:45:56.931Z</time></trkpt><trkpt lat="43.464418" lon="11.4328639"><ele>349.0</ele><time>2026-04-26T09:45:57.919Z</time></trkpt><trkpt lat="43.4645028" lon="11.432947"><ele>348.79999999999995</ele><time>2026-04-26T09:45:58.931Z</time></trkpt><trkpt lat="43.4645921" lon="11.4330233"><ele>348.59999999999997</ele><time>2026-04-26T09:45:59.946Z</time></trkpt><trkpt lat="43.4646807" lon="11.4330875"><ele>348.4</ele><time>2026-04-26T09:46:00.947Z</time></trkpt><trkpt lat="43.4647641" lon="11.433141"><ele>348.2</ele><time>2026-04-26T09:46:01.937Z</time></trkpt><trkpt lat="43.4648393" lon="11.4331911"><ele>348.0</ele><time>2026-04-26T09:46:02.944Z</time></trkpt><trkpt lat="43.464902" lon="11.433236"><ele>348.0</ele><time>2026-04-26T09:46:03.926Z</time></trkpt><trkpt lat="43.4650098" lon="11.4332726"><ele>348.0</ele><time>2026-04-26T09:46:05.937Z</time></trkpt><trkpt lat="43.465124" lon="11.4331877"><ele>348.0</ele><time>2026-04-26T09:46:07.928Z</time></trkpt><trkpt lat="43.4651923" lon="11.4331432"><ele>348.0</ele><time>2026-04-26T09:46:08.94Z</time></trkpt><trkpt lat="43.4652707" lon="11.4331426"><ele>348.0</ele><time>2026-04-26T09:46:09.924Z</time></trkpt><trkpt lat="43.4653543" lon="11.4331836"><ele>348.0</ele><time>2026-04-26T09:46:10.937Z</time></trkpt><trkpt lat="43.4654422" lon="11.4332424"><ele>348.0</ele><time>2026-04-26T09:46:11.923Z</time></trkpt><trkpt lat="43.4655389" lon="11.4332981"><ele>348.0</ele><time>2026-04-26T09:46:12.926Z</time></trkpt><trkpt lat="43.4656422" lon="11.4333386"><ele>348.0</ele><time>2026-04-26T09:46:13.916Z</time></trkpt><trkpt lat="43.4657465" lon="11.4333666"><ele>348.0</ele><time>2026-04-26T09:46:14.922Z</time></trkpt><trkpt lat="43.4658415" lon="11.4333873"><ele>348.0</ele><time>2026-04-26T09:46:15.91Z</time></trkpt><trkpt lat="43.465931" lon="11.4334066"><ele>348.0</ele><time>2026-04-26T09:46:16.913Z</time></trkpt><trkpt lat="43.46602" lon="11.4334232"><ele>348.0</ele><time>2026-04-26T09:46:17.91Z</time></trkpt><trkpt lat="43.4661067" lon="11.4334317"><ele>348.0</ele><time>2026-04-26T09:46:18.914Z</time></trkpt><trkpt lat="43.4662594" lon="11.4334183"><ele>348.0</ele><time>2026-04-26T09:46:20.921Z</time></trkpt><trkpt lat="43.466361" lon="11.4333915"><ele>348.0</ele><time>2026-04-26T09:46:22.931Z</time></trkpt><trkpt lat="43.4664236" lon="11.4333576"><ele>348.0</ele><time>2026-04-26T09:46:24.93Z</time></trkpt><trkpt lat="43.4664772" lon="11.4333006"><ele>348.0</ele><time>2026-04-26T09:46:27.916Z</time></trkpt><trkpt lat="43.4664042" lon="11.4332906"><ele>348.0</ele><time>2026-04-26T09:46:31.93Z</time></trkpt><trkpt lat="43.4663171" lon="11.4333706"><ele>348.0</ele><time>2026-04-26T09:46:33.928Z</time></trkpt><trkpt lat="43.4662525" lon="11.4333941"><ele>348.0</ele><time>2026-04-26T09:46:34.932Z</time></trkpt><trkpt lat="43.4661767" lon="11.4334055"><ele>348.0</ele><time>2026-04-26T09:46:35.927Z</time></trkpt><trkpt lat="43.4660923" lon="11.4334073"><ele>348.0</ele><time>2026-04-26T09:46:36.929Z</time></trkpt><trkpt lat="43.4660023" lon="11.4334022"><ele>348.0</ele><time>2026-04-26T09:46:37.925Z</time></trkpt><trkpt lat="43.4659064" lon="11.4333903"><ele>348.0</ele><time>2026-04-26T09:46:38.92Z</time></trkpt><trkpt lat="43.465805" lon="11.4333701"><ele>348.0</ele><time>2026-04-26T09:46:39.921Z</time></trkpt><trkpt lat="43.4656987" lon="11.4333443"><ele>348.0</ele><time>2026-04-26T09:46:40.92Z</time></trkpt><trkpt lat="43.4655966" lon="11.4333129"><ele>348.0</ele><time>2026-04-26T09:46:41.91Z</time></trkpt><trkpt lat="43.4655022" lon="11.4332703"><ele>348.0</ele><time>2026-04-26T09:46:42.916Z</time></trkpt><trkpt lat="43.4654094" lon="11.4332127"><ele>348.0</ele><time>2026-04-26T09:46:43.92Z</time></trkpt><trkpt lat="43.4653193" lon="11.4331484"><ele>348.0</ele><time>2026-04-26T09:46:44.935Z</time></trkpt><trkpt lat="43.4652334" lon="11.4330948"><ele>348.0</ele><time>2026-04-26T09:46:45.932Z</time></trkpt><trkpt lat="43.4651526" lon="11.4330635"><ele>348.0</ele><time>2026-04-26T09:46:46.921Z</time></trkpt><trkpt lat="43.4650822" lon="11.4330644"><ele>348.0</ele><time>2026-04-26T09:46:47.929Z</time></trkpt><trkpt lat="43.4649976" lon="11.4331451"><ele>348.0</ele><time>2026-04-26T09:46:49.92Z</time></trkpt><trkpt lat="43.4649894" lon="11.4332712"><ele>348.0</ele><time>2026-04-26T09:46:52.927Z</time></trkpt><trkpt lat="43.4650478" lon="11.4333928"><ele>348.0</ele><time>2026-04-26T09:46:54.942Z</time></trkpt><trkpt lat="43.4650994" lon="11.433461"><ele>348.0</ele><time>2026-04-26T09:46:55.942Z</time></trkpt><trkpt lat="43.4651599" lon="11.4335452"><ele>348.0</ele><time>2026-04-26T09:46:56.934Z</time></trkpt><trkpt lat="43.4652248" lon="11.4336425"><ele>348.0</ele><time>2026-04-26T09:46:57.945Z</time></trkpt><trkpt lat="43.4652922" lon="11.433746"><ele>348.0</ele><time>2026-04-26T09:46:58.945Z</time></trkpt><trkpt lat="43.4653665" lon="11.4338525"><ele>348.0</ele><time>2026-04-26T09:46:59.937Z</time></trkpt><trkpt lat="43.4654485" lon="11.4339557"><ele>348.0</ele><time>2026-04-26T09:47:00.944Z</time></trkpt><trkpt lat="43.4655353" lon="11.4340505"><ele>348.0</ele><time>2026-04-26T09:47:01.927Z</time></trkpt><trkpt lat="43.4656301" lon="11.4341295"><ele>348.0</ele><time>2026-04-26T09:47:02.933Z</time></trkpt><trkpt lat="43.4657335" lon="11.4341905"><ele>348.0</ele><time>2026-04-26T09:47:03.923Z</time></trkpt><trkpt lat="43.4658457" lon="11.4342407"><ele>348.0</ele><time>2026-04-26T09:47:04.925Z</time></trkpt><trkpt lat="43.4659621" lon="11.4342824"><ele>348.0</ele><time>2026-04-26T09:47:05.927Z</time></trkpt><trkpt lat="43.4660804" lon="11.434317"><ele>348.0</ele><time>2026-04-26T09:47:06.913Z</time></trkpt><trkpt lat="43.4661989" lon="11.4343465"><ele>348.0</ele><time>2026-04-26T09:47:07.923Z</time></trkpt><trkpt lat="43.4663147" lon="11.4343701"><ele>348.75</ele><time>2026-04-26T09:47:08.928Z</time></trkpt><trkpt lat="43.46643" lon="11.4343846"><ele>349.5</ele><time>2026-04-26T09:47:09.929Z</time></trkpt><trkpt lat="43.466548" lon="11.4343904"><ele>350.25</ele><time>2026-04-26T09:47:10.92Z</time></trkpt><trkpt lat="43.4666677" lon="11.4343892"><ele>351.0</ele><time>2026-04-26T09:47:11.93Z</time></trkpt><trkpt lat="43.4667845" lon="11.4343811"><ele>351.0</ele><time>2026-04-26T09:47:12.937Z</time></trkpt><trkpt lat="43.4668942" lon="11.4343645"><ele>351.0</ele><time>2026-04-26T09:47:13.917Z</time></trkpt><trkpt lat="43.4669945" lon="11.4343422"><ele>351.0</ele><time>2026-04-26T09:47:14.928Z</time></trkpt><trkpt lat="43.4670836" lon="11.4343212"><ele>351.0</ele><time>2026-04-26T09:47:15.93Z</time></trkpt><trkpt lat="43.4671644" lon="11.4343042"><ele>351.0</ele><time>2026-04-26T09:47:16.93Z</time></trkpt><trkpt lat="43.4672368" lon="11.4342895"><ele>351.6</ele><time>2026-04-26T09:47:17.935Z</time></trkpt><trkpt lat="43.4673467" lon="11.4342666"><ele>352.20000000000005</ele><time>2026-04-26T09:47:19.923Z</time></trkpt><trkpt lat="43.4674197" lon="11.4342147"><ele>352.79999999999995</ele><time>2026-04-26T09:47:30.921Z</time></trkpt><trkpt lat="43.4674721" lon="11.4341443"><ele>353.4</ele><time>2026-04-26T09:47:33.943Z</time></trkpt><trkpt lat="43.4675482" lon="11.4340602"><ele>354.0</ele><time>2026-04-26T09:47:35.934Z</time></trkpt><trkpt lat="43.4676441" lon="11.4339719"><ele>354.0</ele><time>2026-04-26T09:47:37.924Z</time></trkpt><trkpt lat="43.4677438" lon="11.4338811"><ele>354.0</ele><time>2026-04-26T09:47:39.955Z</time></trkpt><trkpt lat="43.4678391" lon="11.4337737"><ele>354.0</ele><time>2026-04-26T09:47:41.932Z</time></trkpt><trkpt lat="43.4678888" lon="11.433715"><ele>354.0</ele><time>2026-04-26T09:47:42.959Z</time></trkpt><trkpt lat="43.4679386" lon="11.4336613"><ele>354.0</ele><time>2026-04-26T09:47:43.941Z</time></trkpt><trkpt lat="43.4679889" lon="11.433608"><ele>354.0</ele><time>2026-04-26T09:47:44.929Z</time></trkpt><trkpt lat="43.4680408" lon="11.4335521"><ele>354.5714285714286</ele><time>2026-04-26T09:47:45.929Z</time></trkpt><trkpt lat="43.4680937" lon="11.4334978"><ele>355.1428571428571</ele><time>2026-04-26T09:47:46.93Z</time></trkpt><trkpt lat="43.4681481" lon="11.4334477"><ele>355.7142857142857</ele><time>2026-04-26T09:47:47.943Z</time></trkpt><trkpt lat="43.4682045" lon="11.4334014"><ele>356.28571428571433</ele><time>2026-04-26T09:47:48.925Z</time></trkpt><trkpt lat="43.4682623" lon="11.4333593"><ele>356.8571428571429</ele><time>2026-04-26T09:47:49.914Z</time></trkpt><trkpt lat="43.4683209" lon="11.4333218"><ele>357.42857142857144</ele><time>2026-04-26T09:47:50.926Z</time></trkpt><trkpt lat="43.4683823" lon="11.433289"><ele>358.0</ele><time>2026-04-26T09:47:51.927Z</time></trkpt><trkpt lat="43.4684431" lon="11.433263"><ele>358.0</ele><time>2026-04-26T09:47:52.909Z</time></trkpt><trkpt lat="43.4685559" lon="11.4332238"><ele>358.0</ele><time>2026-04-26T09:47:54.907Z</time></trkpt><trkpt lat="43.4686449" lon="11.4331965"><ele>358.0</ele><time>2026-04-26T09:47:56.909Z</time></trkpt><trkpt lat="43.4687026" lon="11.4331446"><ele>358.0</ele><time>2026-04-26T09:48:08.938Z</time></trkpt><trkpt lat="43.4686341" lon="11.4331308"><ele>358.0</ele><time>2026-04-26T09:48:11.941Z</time></trkpt><trkpt lat="43.4685636" lon="11.4330699"><ele>358.0</ele><time>2026-04-26T09:48:14.952Z</time></trkpt><trkpt lat="43.4685247" lon="11.4329642"><ele>359.0</ele><time>2026-04-26T09:48:16.942Z</time></trkpt><trkpt lat="43.4684905" lon="11.4328339"><ele>360.0</ele><time>2026-04-26T09:48:18.926Z</time></trkpt><trkpt lat="43.4684676" lon="11.4327044"><ele>361.0</ele><time>2026-04-26T09:48:20.93Z</time></trkpt><trkpt lat="43.4684552" lon="11.4325843"><ele>362.0</ele><time>2026-04-26T09:48:22.927Z</time></trkpt><trkpt lat="43.4684292" lon="11.4324894"><ele>363.0</ele><time>2026-04-26T09:48:25.956Z</time></trkpt><trkpt lat="43.4683515" lon="11.4324269"><ele>364.0</ele><time>2026-04-26T09:48:31.93Z</time></trkpt><trkpt lat="43.4683038" lon="11.432348"><ele>364.0</ele><time>2026-04-26T09:48:33.926Z</time></trkpt><trkpt lat="43.4682527" lon="11.4322844"><ele>364.0</ele><time>2026-04-26T09:48:35.938Z</time></trkpt><trkpt lat="43.4681982" lon="11.4322043"><ele>364.0</ele><time>2026-04-26T09:48:37.953Z</time></trkpt><trkpt lat="43.4681237" lon="11.4321126"><ele>364.0</ele><time>2026-04-26T09:48:39.929Z</time></trkpt><trkpt lat="43.4680388" lon="11.432013"><ele>364.0</ele><time>2026-04-26T09:48:41.906Z</time></trkpt><trkpt lat="43.4679465" lon="11.431904"><ele>366.4</ele><time>2026-04-26T09:48:43.897Z</time></trkpt><trkpt lat="43.4677935" lon="11.4317407"><ele>368.79999999999995</ele><time>2026-04-26T09:48:46.914Z</time></trkpt><trkpt lat="43.4677413" lon="11.43169"><ele>371.20000000000005</ele><time>2026-04-26T09:48:47.913Z</time></trkpt><trkpt lat="43.4676869" lon="11.4316413"><ele>373.6</ele><time>2026-04-26T09:48:48.922Z</time></trkpt><trkpt lat="43.4676282" lon="11.4315922"><ele>376.0</ele><time>2026-04-26T09:48:49.905Z</time></trkpt><trkpt lat="43.4675569" lon="11.4315488"><ele>388.0</ele><time>2026-04-26T09:48:50.924Z</time></trkpt><trkpt lat="43.4666929" lon="11.4310085"><ele>388.0</ele><time>2026-04-26T09:49:03.952Z</time></trkpt><trkpt lat="43.4666624" lon="11.4309228"><ele>388.0</ele><time>2026-04-26T09:49:04.936Z</time></trkpt><trkpt lat="43.4666352" lon="11.4307971"><ele>388.0</ele><time>2026-04-26T09:49:06.927Z</time></trkpt><trkpt lat="43.4665621" lon="11.4308247"><ele>388.0</ele><time>2026-04-26T09:49:09.924Z</time></trkpt><trkpt lat="43.4665979" lon="11.4309194"><ele>388.0</ele><time>2026-04-26T09:49:19.937Z</time></trkpt><trkpt lat="43.4667115" lon="11.4311113"><ele>388.0</ele><time>2026-04-26T09:49:22.944Z</time></trkpt><trkpt lat="43.4667861" lon="11.4311989"><ele>388.0</ele><time>2026-04-26T09:49:23.943Z</time></trkpt><trkpt lat="43.4668859" lon="11.431277"><ele>388.0</ele><time>2026-04-26T09:49:24.934Z</time></trkpt><trkpt lat="43.4670038" lon="11.4313391"><ele>388.0</ele><time>2026-04-26T09:49:25.928Z</time></trkpt><trkpt lat="43.4671238" lon="11.4313823"><ele>385.0</ele><time>2026-04-26T09:49:26.933Z</time></trkpt><trkpt lat="43.4672405" lon="11.431422"><ele>382.0</ele><time>2026-04-26T09:49:27.92Z</time></trkpt><trkpt lat="43.4673525" lon="11.4314752"><ele>379.0</ele><time>2026-04-26T09:49:28.929Z</time></trkpt><trkpt lat="43.4674623" lon="11.4315415"><ele>376.0</ele><time>2026-04-26T09:49:29.922Z</time></trkpt><trkpt lat="43.4675723" lon="11.4316135"><ele>376.0</ele><time>2026-04-26T09:49:30.902Z</time></trkpt><trkpt lat="43.4676803" lon="11.431688"><ele>376.0</ele><time>2026-04-26T09:49:31.901Z</time></trkpt><trkpt lat="43.467782" lon="11.4317653"><ele>376.0</ele><time>2026-04-26T09:49:32.895Z</time></trkpt><trkpt lat="43.4678742" lon="11.4318462"><ele>376.0</ele><time>2026-04-26T09:49:33.893Z</time></trkpt><trkpt lat="43.4679554" lon="11.4319319"><ele>376.0</ele><time>2026-04-26T09:49:34.912Z</time></trkpt><trkpt lat="43.4680233" lon="11.4320121"><ele>375.8</ele><time>2026-04-26T09:49:35.891Z</time></trkpt><trkpt lat="43.4680794" lon="11.4320853"><ele>375.6</ele><time>2026-04-26T09:49:36.896Z</time></trkpt><trkpt lat="43.468116" lon="11.4321957"><ele>375.4</ele><time>2026-04-26T09:49:38.901Z</time></trkpt><trkpt lat="43.4680481" lon="11.4322761"><ele>375.2</ele><time>2026-04-26T09:49:41.891Z</time></trkpt><trkpt lat="43.4678816" lon="11.4323682"><ele>375.0</ele><time>2026-04-26T09:49:44.881Z</time></trkpt><trkpt lat="43.4677874" lon="11.4324273"><ele>371.75</ele><time>2026-04-26T09:49:45.886Z</time></trkpt><trkpt lat="43.4676822" lon="11.432494"><ele>368.5</ele><time>2026-04-26T09:49:46.892Z</time></trkpt><trkpt lat="43.4675676" lon="11.4325694"><ele>365.25</ele><time>2026-04-26T09:49:47.898Z</time></trkpt><trkpt lat="43.4674488" lon="11.4326482"><ele>362.0</ele><time>2026-04-26T09:49:48.893Z</time></trkpt><trkpt lat="43.4673263" lon="11.4327292"><ele>362.0</ele><time>2026-04-26T09:49:49.899Z</time></trkpt><trkpt lat="43.4672046" lon="11.4328135"><ele>362.0</ele><time>2026-04-26T09:49:50.915Z</time></trkpt><trkpt lat="43.4670842" lon="11.4328942"><ele>362.0</ele><time>2026-04-26T09:49:51.945Z</time></trkpt><trkpt lat="43.4669655" lon="11.4329713"><ele>362.0</ele><time>2026-04-26T09:49:52.948Z</time></trkpt><trkpt lat="43.466846" lon="11.4330488"><ele>359.5</ele><time>2026-04-26T09:49:53.928Z</time></trkpt><trkpt lat="43.4667279" lon="11.4331242"><ele>357.0</ele><time>2026-04-26T09:49:54.941Z</time></trkpt><trkpt lat="43.4666154" lon="11.4331991"><ele>354.5</ele><time>2026-04-26T09:49:55.925Z</time></trkpt><trkpt lat="43.4665055" lon="11.4332711"><ele>352.0</ele><time>2026-04-26T09:49:56.927Z</time></trkpt><trkpt lat="43.4663987" lon="11.4333378"><ele>352.0</ele><time>2026-04-26T09:49:57.925Z</time></trkpt><trkpt lat="43.4662944" lon="11.4333922"><ele>352.0</ele><time>2026-04-26T09:49:58.934Z</time></trkpt><trkpt lat="43.4661921" lon="11.4334215"><ele>352.0</ele><time>2026-04-26T09:49:59.935Z</time></trkpt><trkpt lat="43.4660878" lon="11.4334222"><ele>352.0</ele><time>2026-04-26T09:50:00.951Z</time></trkpt><trkpt lat="43.4659793" lon="11.4334091"><ele>352.0</ele><time>2026-04-26T09:50:01.942Z</time></trkpt><trkpt lat="43.465865" lon="11.4333883"><ele>350.66666666666663</ele><time>2026-04-26T09:50:02.934Z</time></trkpt><trkpt lat="43.4656241" lon="11.433331"><ele>349.3333333333333</ele><time>2026-04-26T09:50:04.935Z</time></trkpt><trkpt lat="43.4655104" lon="11.4332858"><ele>348.0</ele><time>2026-04-26T09:50:05.935Z</time></trkpt><trkpt lat="43.4654065" lon="11.4332227"><ele>348.0</ele><time>2026-04-26T09:50:06.947Z</time></trkpt><trkpt lat="43.4653121" lon="11.4331508"><ele>348.0</ele><time>2026-04-26T09:50:07.938Z</time></trkpt><trkpt lat="43.4652214" lon="11.4330917"><ele>348.0</ele><time>2026-04-26T09:50:08.937Z</time></trkpt><trkpt lat="43.465137" lon="11.4330641"><ele>348.0</ele><time>2026-04-26T09:50:09.938Z</time></trkpt><trkpt lat="43.4650651" lon="11.4330709"><ele>348.0</ele><time>2026-04-26T09:50:10.93Z</time></trkpt><trkpt lat="43.4649829" lon="11.4331356"><ele>348.0</ele><time>2026-04-26T09:50:12.961Z</time></trkpt><trkpt lat="43.4649578" lon="11.4332192"><ele>348.0</ele><time>2026-04-26T09:50:15.955Z</time></trkpt><trkpt lat="43.4649816" lon="11.4333246"><ele>348.0</ele><time>2026-04-26T09:50:17.938Z</time></trkpt><trkpt lat="43.4650689" lon="11.4334485"><ele>348.0</ele><time>2026-04-26T09:50:19.927Z</time></trkpt><trkpt lat="43.4651233" lon="11.4335167"><ele>348.0</ele><time>2026-04-26T09:50:20.938Z</time></trkpt><trkpt lat="43.4651791" lon="11.433595"><ele>348.0</ele><time>2026-04-26T09:50:21.93Z</time></trkpt><trkpt lat="43.4652374" lon="11.4336809"><ele>348.0</ele><time>2026-04-26T09:50:22.934Z</time></trkpt><trkpt lat="43.4652986" lon="11.4337683"><ele>348.0</ele><time>2026-04-26T09:50:23.929Z</time></trkpt><trkpt lat="43.465436" lon="11.4339435"><ele>348.0</ele><time>2026-04-26T09:50:25.924Z</time></trkpt><trkpt lat="43.4655121" lon="11.4340311"><ele>348.0</ele><time>2026-04-26T09:50:26.937Z</time></trkpt><trkpt lat="43.4655957" lon="11.4341093"><ele>348.0</ele><time>2026-04-26T09:50:27.938Z</time></trkpt><trkpt lat="43.4656887" lon="11.4341717"><ele>348.0</ele><time>2026-04-26T09:50:28.925Z</time></trkpt><trkpt lat="43.4657899" lon="11.4342204"><ele>348.0</ele><time>2026-04-26T09:50:29.933Z</time></trkpt><trkpt lat="43.4658952" lon="11.4342609"><ele>348.0</ele><time>2026-04-26T09:50:30.939Z</time></trkpt><trkpt lat="43.4660024" lon="11.4342964"><ele>348.0</ele><time>2026-04-26T09:50:31.925Z</time></trkpt><trkpt lat="43.4661109" lon="11.434327"><ele>348.0</ele><time>2026-04-26T09:50:32.93Z</time></trkpt><trkpt lat="43.4662182" lon="11.4343514"><ele>348.0</ele><time>2026-04-26T09:50:33.934Z</time></trkpt><trkpt lat="43.4663256" lon="11.4343691"><ele>348.0</ele><time>2026-04-26T09:50:34.937Z</time></trkpt><trkpt lat="43.4664333" lon="11.4343791"><ele>348.0</ele><time>2026-04-26T09:50:35.927Z</time></trkpt><trkpt lat="43.4665441" lon="11.4343833"><ele>348.0</ele><time>2026-04-26T09:50:36.941Z</time></trkpt><trkpt lat="43.4666537" lon="11.4343825"><ele>348.59999999999997</ele><time>2026-04-26T09:50:37.923Z</time></trkpt><trkpt lat="43.4667631" lon="11.4343754"><ele>349.2</ele><time>2026-04-26T09:50:38.935Z</time></trkpt><trkpt lat="43.4668702" lon="11.4343603"><ele>349.8</ele><time>2026-04-26T09:50:39.935Z</time></trkpt><trkpt lat="43.466973" lon="11.4343402"><ele>350.4</ele><time>2026-04-26T09:50:40.94Z</time></trkpt><trkpt lat="43.4670642" lon="11.4343207"><ele>351.0</ele><time>2026-04-26T09:50:41.929Z</time></trkpt><trkpt lat="43.4671397" lon="11.4343044"><ele>354.0</ele><time>2026-04-26T09:50:42.929Z</time></trkpt><trkpt lat="43.4672362" lon="11.434288"><ele>354.0</ele><time>2026-04-26T09:50:44.925Z</time></trkpt></trkseg></trk></gpx>